createdAt,value
2023-08-11T00:01:51.111Z,12.5
2023-08-11T00:06:57.220Z,12.4
2023-08-11T00:12:03.320Z,12.4
2023-08-11T00:17:09.395Z,12.3
2023-08-11T00:22:15.510Z,12.2
2023-08-11T00:27:21.608Z,12.2
2023-08-11T00:32:27.694Z,12.2
2023-08-11T00:37:32.832Z,12.2
2023-08-11T00:42:38.912Z,12.2
2023-08-11T00:47:45.003Z,12.2
2023-08-11T00:52:51.090Z,12.1
2023-08-11T00:57:57.188Z,12.1
2023-08-11T01:03:03.303Z,12
2023-08-11T01:08:09.394Z,12
2023-08-11T01:18:21.587Z,11.9
2023-08-11T01:23:27.665Z,11.8
2023-08-11T01:28:33.786Z,11.8
2023-08-11T01:33:39.898Z,11.7
2023-08-11T01:38:45.984Z,11.7
2023-08-11T01:43:51.081Z,11.7
2023-08-11T01:48:57.175Z,11.6
2023-08-11T01:54:03.275Z,11.6
2023-08-11T01:59:09.389Z,11.6
2023-08-11T02:04:15.470Z,11.6
2023-08-11T02:09:21.578Z,11.4
2023-08-11T02:14:27.666Z,11.3
2023-08-11T02:19:33.765Z,11.3
2023-08-11T02:24:39.856Z,11.2
2023-08-11T02:29:45.950Z,11.1
2023-08-11T02:34:52.059Z,11.1
2023-08-11T02:39:58.134Z,11.1
2023-08-11T02:45:04.245Z,11.1
2023-08-11T02:50:09.332Z,11.1
2023-08-11T02:55:15.564Z,11
2023-08-11T03:00:21.562Z,11.1
2023-08-11T03:05:27.653Z,11.1
2023-08-11T03:10:33.731Z,11
2023-08-11T03:15:39.834Z,11
2023-08-11T03:20:45.932Z,11
2023-08-11T03:25:52.041Z,10.9
2023-08-11T03:30:58.141Z,10.9
2023-08-11T03:36:04.224Z,10.9
2023-08-11T03:41:10.322Z,10.8
2023-08-11T03:46:16.405Z,10.8
2023-08-11T03:51:22.804Z,10.7
2023-08-11T03:56:27.641Z,10.7
2023-08-11T04:01:33.736Z,10.7
2023-08-11T04:06:39.830Z,10.8
2023-08-11T04:11:45.914Z,10.8
2023-08-11T04:16:52.084Z,10.8
2023-08-11T04:21:58.113Z,10.9
2023-08-11T04:27:04.250Z,10.9
2023-08-11T04:32:10.305Z,11
2023-08-11T04:37:16.398Z,11.1
2023-08-11T04:42:22.492Z,11.2
2023-08-11T04:47:28.612Z,11.3
2023-08-11T04:52:34.695Z,11.5
2023-08-11T04:57:40.792Z,11.6
2023-08-11T05:02:45.974Z,11.7
2023-08-11T05:07:52.015Z,11.9
2023-08-11T05:12:58.103Z,12
2023-08-11T05:18:04.205Z,12
2023-08-11T05:23:10.278Z,12.1
2023-08-11T05:28:16.386Z,12.3
2023-08-11T05:33:22.491Z,12.5
2023-08-11T05:38:28.590Z,12.7
2023-08-11T05:43:34.674Z,13
2023-08-11T05:48:40.777Z,13.3
2023-08-11T05:53:46.863Z,13.5
2023-08-11T05:58:52.982Z,13.7
2023-08-11T06:03:59.067Z,14.1
2023-08-11T06:09:04.183Z,14.4
2023-08-11T06:14:10.272Z,14.6
2023-08-11T06:19:16.361Z,14.8
2023-08-11T06:24:22.449Z,15.1
2023-08-11T06:29:28.590Z,15.4
2023-08-11T06:34:34.682Z,15.6
2023-08-11T06:39:40.745Z,15.8
2023-08-11T06:44:46.858Z,16
2023-08-11T06:49:52.946Z,16.2
2023-08-11T06:54:59.077Z,16.5
2023-08-11T07:00:05.156Z,16.6
2023-08-11T07:05:11.241Z,16.9
2023-08-11T07:10:17.339Z,17.1
2023-08-11T07:15:22.452Z,17.3
2023-08-11T07:20:28.622Z,17.6
2023-08-11T07:25:34.626Z,17.8
2023-08-11T07:30:40.749Z,18
2023-08-11T07:35:46.838Z,18.4
2023-08-11T07:40:52.936Z,18.8
2023-08-11T07:45:58.172Z,19.2
2023-08-11T07:51:03.182Z,19.4
2023-08-11T07:56:08.337Z,19.6
2023-08-11T08:01:14.355Z,19.9
2023-08-11T08:06:20.500Z,20.2
2023-08-11T08:11:26.553Z,20.3
2023-08-11T08:16:32.676Z,20.7
2023-08-11T08:21:38.752Z,20.8
2023-08-11T08:26:44.843Z,20.8
2023-08-11T08:31:50.931Z,21.1
2023-08-11T08:36:57.030Z,21.4
2023-08-11T08:42:03.129Z,21.7
2023-08-11T08:47:09.224Z,22
2023-08-11T08:52:15.319Z,23
2023-08-11T08:57:21.422Z,23.9
2023-08-11T09:02:26.538Z,24.8
2023-08-11T09:07:32.619Z,25.9
2023-08-11T09:12:38.730Z,27.1
2023-08-11T09:17:44.820Z,28
2023-08-11T09:22:50.909Z,29
2023-08-11T09:27:57.034Z,29.1
2023-08-11T09:33:02.141Z,28.8
2023-08-11T09:38:07.300Z,28.2
2023-08-11T09:43:12.346Z,29.3
2023-08-11T09:48:18.461Z,28.9
2023-08-11T09:53:24.543Z,28.8
2023-08-11T09:58:30.729Z,29.8
2023-08-11T10:03:36.852Z,30.6
2023-08-11T10:08:42.966Z,30.8
2023-08-11T10:13:48.977Z,31
2023-08-11T10:18:55.067Z,31
2023-08-11T10:24:01.143Z,31.5
2023-08-11T10:29:07.225Z,31.6
2023-08-11T10:34:13.325Z,32.6
2023-08-11T10:39:19.433Z,31.8
2023-08-11T10:44:25.526Z,32.3
2023-08-11T10:49:30.645Z,32.2
2023-08-11T10:54:36.733Z,33.1
2023-08-11T10:59:42.828Z,33.1
2023-08-11T11:04:48.944Z,33.3
2023-08-11T11:09:55.038Z,33.7
2023-08-11T11:15:01.155Z,32.7
2023-08-11T11:20:06.252Z,32.4
2023-08-11T11:25:11.364Z,33.6
2023-08-11T11:30:17.469Z,33.5
2023-08-11T11:35:23.576Z,33
2023-08-11T11:40:29.686Z,33.8
2023-08-11T11:45:35.758Z,33.1
2023-08-11T11:50:41.850Z,34.2
2023-08-11T11:55:47.974Z,33.8
2023-08-11T12:00:54.066Z,33.8
2023-08-11T12:06:00.150Z,32
2023-08-11T12:11:06.356Z,30.5
2023-08-11T12:16:12.346Z,30
2023-08-11T12:21:18.456Z,28.4
2023-08-11T12:26:24.555Z,28
2023-08-11T12:31:29.672Z,27.8
2023-08-11T12:36:35.753Z,27.6
2023-08-11T12:41:41.857Z,27.6
2023-08-11T12:46:47.950Z,27.4
2023-08-11T12:51:54.098Z,27.6
2023-08-11T12:57:00.140Z,27.5
2023-08-11T13:02:05.272Z,27.6
2023-08-11T13:07:10.378Z,27.5
2023-08-11T13:12:15.499Z,27.7
2023-08-11T13:17:21.589Z,27.6
2023-08-11T13:22:27.673Z,27.7
2023-08-11T13:27:33.778Z,27.7
2023-08-11T13:32:39.870Z,27.4
2023-08-11T13:37:45.970Z,27.4
2023-08-11T13:42:52.057Z,27.7
2023-08-11T13:47:58.163Z,27.6
2023-08-11T13:53:04.262Z,27.5
2023-08-11T13:58:10.355Z,27.7
2023-08-11T14:03:16.518Z,27.8
2023-08-11T14:08:22.571Z,27.9
2023-08-11T14:13:28.634Z,27.7
2023-08-11T14:18:33.775Z,27.8
2023-08-11T14:23:39.888Z,28
2023-08-11T14:28:45.947Z,28
2023-08-11T14:33:52.032Z,27.8
2023-08-11T14:38:58.183Z,28.4
2023-08-11T14:44:04.232Z,28.3
2023-08-11T14:49:10.320Z,28
2023-08-11T14:54:16.442Z,28.2
2023-08-11T14:59:22.531Z,28
2023-08-11T15:04:28.646Z,28.1
2023-08-11T15:09:34.752Z,28.2
2023-08-11T15:14:40.793Z,28.2
2023-08-11T15:19:46.907Z,28.1
2023-08-11T15:24:52.024Z,28.1
2023-08-11T15:29:58.111Z,28
2023-08-11T15:35:04.202Z,28
2023-08-11T15:40:10.310Z,27.9
2023-08-11T15:45:16.421Z,27.8
2023-08-11T15:50:22.498Z,27.9
2023-08-11T15:55:28.588Z,27.7
2023-08-11T16:00:34.692Z,27.8
2023-08-11T16:05:40.772Z,27.8
2023-08-11T16:10:46.874Z,28
2023-08-11T16:15:52.955Z,27.9
2023-08-11T16:20:59.071Z,27.8
2023-08-11T16:26:05.169Z,27.7
2023-08-11T16:31:10.260Z,27.7
2023-08-11T16:36:15.393Z,27.6
2023-08-11T16:41:21.526Z,27.3
2023-08-11T16:46:27.580Z,27.3
2023-08-11T16:51:33.683Z,27.3
2023-08-11T16:56:39.769Z,27.7
2023-08-11T17:01:45.862Z,27.7
2023-08-11T17:06:51.959Z,28.7
2023-08-11T17:11:58.059Z,29.6
2023-08-11T17:17:04.227Z,29.8
2023-08-11T17:22:10.263Z,29.6
2023-08-11T17:27:16.352Z,29.4
2023-08-11T17:32:22.465Z,29.5
2023-08-11T17:37:28.547Z,29.3
2023-08-11T17:42:33.668Z,28.8
2023-08-11T17:47:39.778Z,27.8
2023-08-11T17:52:45.876Z,26.7
2023-08-11T17:57:51.973Z,26
2023-08-11T18:02:58.059Z,25.4
2023-08-11T18:08:04.159Z,25
2023-08-11T18:13:10.253Z,24.7
2023-08-11T18:18:16.351Z,24.5
2023-08-11T18:23:22.441Z,24.2
2023-08-11T18:28:27.584Z,23.9
2023-08-11T18:33:32.698Z,23.5
2023-08-11T18:38:38.853Z,23.1
2023-08-11T18:43:44.866Z,22.8
2023-08-11T18:48:50.985Z,22.5
2023-08-11T18:53:57.058Z,22.2
2023-08-11T18:59:03.161Z,21.9
2023-08-11T19:04:09.262Z,21.6
2023-08-11T19:09:15.355Z,21.4
2023-08-11T19:14:21.463Z,21.3
2023-08-11T19:19:27.542Z,21.1
2023-08-11T19:24:33.643Z,21
2023-08-11T19:29:39.724Z,20.9
2023-08-11T19:34:45.797Z,20.8
2023-08-11T19:39:50.933Z,20.7
2023-08-11T19:44:57.008Z,20.7
2023-08-11T19:50:03.120Z,20.9
2023-08-11T19:55:09.230Z,21.2
2023-08-11T20:00:15.383Z,21.2
2023-08-11T20:05:21.394Z,21.1
2023-08-11T20:10:26.500Z,21.1
2023-08-11T20:15:32.620Z,21.2
2023-08-11T20:20:37.716Z,21.2
2023-08-11T20:25:43.807Z,21.3
2023-08-11T20:30:49.921Z,21.4
2023-08-11T20:35:55.994Z,21.2
2023-08-11T20:41:02.096Z,21
2023-08-11T20:46:08.188Z,20.8
2023-08-11T20:51:14.283Z,20.5
2023-08-11T20:56:20.372Z,20.2
2023-08-11T21:01:26.501Z,20
2023-08-11T21:06:32.579Z,19.8
2023-08-11T21:11:38.659Z,19.6
2023-08-11T21:16:44.754Z,19.6
2023-08-11T21:21:50.874Z,19.8
2023-08-11T21:26:55.958Z,19.7
2023-08-11T21:32:02.067Z,19.7
2023-08-11T21:37:08.260Z,19.9
2023-08-11T21:42:14.280Z,19.9
2023-08-11T21:47:20.343Z,19.9
2023-08-11T21:52:25.461Z,20
2023-08-11T21:57:30.605Z,19.8
2023-08-11T22:02:36.696Z,19.6
2023-08-11T22:07:42.762Z,19.4
2023-08-11T22:12:48.862Z,19.2
2023-08-11T22:17:54.952Z,19
2023-08-11T22:23:01.143Z,18.9
2023-08-11T22:28:07.146Z,18.7
2023-08-11T22:33:13.254Z,18.6
2023-08-11T22:38:19.340Z,18.5
2023-08-11T22:43:25.443Z,18.4
2023-08-11T22:48:31.531Z,18.3
2023-08-11T22:53:37.724Z,18.3
2023-08-11T22:58:43.748Z,18.4
2023-08-11T23:03:48.841Z,18.4
2023-08-11T23:08:54.945Z,18.3
2023-08-11T23:14:01.047Z,18.3
2023-08-11T23:19:07.135Z,18.1
2023-08-11T23:24:13.238Z,18
2023-08-11T23:29:19.362Z,17.9
2023-08-11T23:34:25.443Z,17.9
2023-08-11T23:39:31.535Z,17.8
2023-08-11T23:44:37.625Z,17.8
2023-08-11T23:49:43.714Z,17.8
2023-08-11T23:54:49.818Z,17.8
2023-08-11T23:59:55.923Z,17.7
